Lutcher, Louisiana
Current Conditions -  °F | °C
As of 6:35 AM on Monday 22 Dec 2014 (Local Time) from K1L0 Reporting Station
Haze Haze  
Wind Chill: 59°   Ceiling: 300
Heat Index: 59°   Visibility: 0.75mi
Dew Point: 57°   Wind: 0mph
Humidity: 94%   Direction: NA
Pressure: 29.85"   Gusts: NA
Location:  30.04°N, 90.7°W
Report Text: K1L0 221235Z AUTO 00000KT 3/4SM BR OVC003 15/14 A2985 RMK AO2 T01500140
Loading
Personal Weather Stations






























Interactive Weather Map New forecast layout! Learn more

10-Day Weather Forecast

Advertisements
Track Severe Weather on mobile